Time;durP1;ratioP1;P1;durP2;ratioP2;P2;SDS_P1;SDS_P2;PMS_P1;PMS_P2;Temp;Humidity;BMP_temperature;BMP_pressure;BME280_temperature;BME280_humidity;BME280_pressure;Samples;Min_cycle;Max_cycle;Signal;HPM_P1;HPM_P2
2022/10/25 00:02:24;;;;;;;1.92;1.33;;;16.90;70.00;;;;;;5091484;28;20512;-72
2022/10/25 00:04:52;;;;;;;2.15;1.30;;;17.00;70.00;;;;;;5090713;28;20048;-72
2022/10/25 00:07:18;;;;;;;1.88;1.10;;;16.90;70.00;;;;;;5090285;28;20054;-72
2022/10/25 00:09:45;;;;;;;1.52;1.10;;;16.90;70.00;;;;;;5081716;28;20048;-72
2022/10/25 00:12:12;;;;;;;1.90;1.38;;;16.90;70.00;;;;;;5071293;28;20052;-72
2022/10/25 00:14:38;;;;;;;1.67;1.20;;;16.90;70.00;;;;;;5073112;28;20390;-72
2022/10/25 00:17:05;;;;;;;1.33;1.20;;;16.90;70.00;;;;;;5075381;28;20050;-72
2022/10/25 00:19:32;;;;;;;2.97;1.20;;;16.90;70.00;;;;;;5074272;28;20056;-72
2022/10/25 00:22:00;;;;;;;2.88;1.30;;;16.90;70.00;;;;;;5074228;28;20500;-72
2022/10/25 00:24:27;;;;;;;2.00;1.42;;;16.90;70.00;;;;;;5084836;28;20054;-72
2022/10/25 00:26:53;;;;;;;1.75;1.20;;;16.90;70.10;;;;;;5094187;28;20048;-72
2022/10/25 00:29:20;;;;;;;1.77;1.08;;;16.90;70.00;;;;;;5094356;28;20405;-72
2022/10/25 00:31:47;;;;;;;2.63;1.52;;;16.90;70.10;;;;;;5093924;28;20040;-72
2022/10/25 00:34:14;;;;;;;2.42;1.40;;;16.90;70.60;;;;;;5094170;28;20052;-72
2022/10/25 00:36:40;;;;;;;1.77;1.25;;;16.90;70.10;;;;;;5093987;28;20056;-72
2022/10/25 00:39:09;;;;;;;2.67;1.20;;;16.90;70.10;;;;;;5094265;28;20504;-72
2022/10/25 00:41:35;;;;;;;1.73;1.33;;;16.90;70.10;;;;;;5081700;28;20059;-72
2022/10/25 00:44:40;;;;;;;1.90;1.20;;;16.90;70.10;;;;;;5080313;28;20516;-72
2022/10/25 00:47:10;;;;;;;1.67;1.20;;;16.90;70.00;;;;;;5094331;28;20130;-72
2022/10/25 00:49:37;;;;;;;3.28;1.40;;;16.90;70.10;;;;;;5093433;28;20062;-72
2022/10/25 00:52:04;;;;;;;2.17;1.30;;;16.90;70.10;;;;;;5093716;28;20052;-72
2022/10/25 00:54:35;;;;;;;2.85;1.50;;;16.90;70.10;;;;;;5094882;28;20054;-72
2022/10/25 00:57:03;;;;;;;1.63;1.30;;;16.90;70.10;;;;;;5093621;28;20572;-72
2022/10/25 00:59:30;;;;;;;2.47;1.42;;;16.90;70.10;;;;;;5074533;28;20099;-72
2022/10/25 01:01:57;;;;;;;2.85;1.40;;;16.90;70.10;;;;;;5074236;28;20044;-72
2022/10/25 01:04:25;;;;;;;2.15;1.30;;;16.90;70.10;;;;;;5074561;28;20045;-72
2022/10/25 01:06:52;;;;;;;2.00;1.50;;;16.90;70.10;;;;;;5073476;28;20672;-71
2022/10/25 01:09:20;;;;;;;2.03;1.30;;;16.90;70.10;;;;;;5073384;28;20193;-72
2022/10/25 01:11:48;;;;;;;1.83;1.35;;;16.90;70.10;;;;;;5073040;28;20052;-73
2022/10/25 01:14:15;;;;;;;2.08;1.55;;;16.80;70.00;;;;;;5073199;28;20067;-72
2022/10/25 01:16:45;;;;;;;2.25;1.55;;;16.80;70.00;;;;;;5073153;28;20481;-72
2022/10/25 01:19:26;;;;;;;2.05;1.63;;;16.80;70.00;;;;;;5073215;28;20048;-72
2022/10/25 01:21:53;;;;;;;1.90;1.50;;;16.80;70.10;;;;;;5073567;28;20056;-72
2022/10/25 01:24:43;;;;;;;2.22;1.50;;;16.80;70.10;;;;;;5073168;28;20155;-72
2022/10/25 01:27:33;;;;;;;4.07;1.60;;;16.80;70.00;;;;;;5072034;28;20059;-72
2022/10/25 01:30:12;;;;;;;2.28;1.35;;;16.80;70.00;;;;;;5072918;28;20503;-72
2022/10/25 01:32:43;;;;;;;2.13;1.65;;;16.80;70.10;;;;;;5072410;28;20066;-72
2022/10/25 01:35:16;;;;;;;2.47;1.40;;;16.80;70.10;;;;;;5072998;28;20059;-72
2022/10/25 01:37:48;;;;;;;1.88;1.50;;;16.80;70.10;;;;;;5089179;28;20494;-72
2022/10/25 01:40:20;;;;;;;3.45;1.70;;;16.80;70.10;;;;;;5072612;28;20056;-72
2022/10/25 01:42:50;;;;;;;1.65;1.35;;;16.80;70.10;;;;;;5055834;28;20048;-72
2022/10/25 01:45:20;;;;;;;2.17;1.70;;;16.80;70.10;;;;;;5073409;28;20045;-72
2022/10/25 01:47:50;;;;;;;3.25;1.70;;;16.80;70.10;;;;;;5072552;28;20056;-72
2022/10/25 01:50:22;;;;;;;2.17;1.50;;;16.80;70.10;;;;;;5075908;28;20059;-72
2022/10/25 01:52:48;;;;;;;3.55;1.70;;;16.80;70.10;;;;;;5092807;28;20139;-72
2022/10/25 01:55:15;;;;;;;1.73;1.30;;;16.80;70.10;;;;;;5092539;28;20052;-72
2022/10/25 01:57:57;;;;;;;1.83;1.33;;;16.80;70.10;;;;;;5092713;28;20051;-72
2022/10/25 02:00:24;;;;;;;4.03;1.63;;;16.80;70.10;;;;;;5092454;28;20059;-73
2022/10/25 02:03:08;;;;;;;3.55;1.42;;;16.80;70.10;;;;;;5092499;28;20062;-72
2022/10/25 02:05:38;;;;;;;2.25;1.48;;;16.80;70.10;;;;;;5083788;28;20049;-72
2022/10/25 02:08:06;;;;;;;2.10;1.60;;;16.80;70.10;;;;;;5071720;28;20055;-72
2022/10/25 02:10:38;;;;;;;1.67;1.30;;;16.80;70.10;;;;;;5071831;28;20412;-72
2022/10/25 02:13:07;;;;;;;2.45;1.73;;;16.80;70.10;;;;;;5072232;28;20079;-73
2022/10/25 02:15:37;;;;;;;2.53;1.50;;;16.80;70.10;;;;;;5072139;28;20045;-72
2022/10/25 02:18:06;;;;;;;2.33;1.63;;;16.80;70.10;;;;;;5072047;28;20477;-72
2022/10/25 02:20:34;;;;;;;2.60;1.50;;;16.80;70.10;;;;;;5084392;28;20412;-71
2022/10/25 02:23:02;;;;;;;2.53;1.70;;;16.80;70.10;;;;;;5092176;28;20412;-72
2022/10/25 02:25:29;;;;;;;2.08;1.40;;;16.80;70.10;;;;;;5092214;28;20054;-72
2022/10/25 02:27:56;;;;;;;2.45;1.70;;;16.80;70.10;;;;;;5092114;28;20056;-72
2022/10/25 02:30:23;;;;;;;2.80;1.73;;;16.80;70.10;;;;;;5092585;28;20052;-72
2022/10/25 02:32:50;;;;;;;2.83;1.50;;;16.80;70.10;;;;;;5091947;28;20054;-72
2022/10/25 02:35:18;;;;;;;2.13;1.55;;;16.80;70.10;;;;;;5079143;28;20054;-71
2022/10/25 02:37:45;;;;;;;2.00;1.60;;;16.80;70.10;;;;;;5070333;28;20052;-71
2022/10/25 02:40:11;;;;;;;1.92;1.38;;;16.80;70.10;;;;;;5072533;28;20055;-71
2022/10/25 02:42:38;;;;;;;2.15;1.50;;;16.80;70.10;;;;;;5072681;28;20405;-71
2022/10/25 02:45:06;;;;;;;2.45;1.65;;;16.80;70.10;;;;;;5071175;28;20052;-71
2022/10/25 02:47:32;;;;;;;2.17;1.63;;;16.80;70.10;;;;;;5071600;28;20056;-71
2022/10/25 02:49:59;;;;;;;3.55;1.83;;;16.80;70.10;;;;;;5085967;28;20157;-71
2022/10/25 02:52:27;;;;;;;1.58;1.30;;;16.80;70.10;;;;;;5092771;28;20495;-71
2022/10/25 02:54:54;;;;;;;2.53;1.60;;;16.70;70.10;;;;;;5091721;28;20145;-71
2022/10/25 02:57:21;;;;;;;1.70;1.45;;;16.80;70.20;;;;;;5092637;28;20054;-71
2022/10/25 02:59:48;;;;;;;3.00;1.63;;;16.80;70.10;;;;;;5091506;28;20620;-71
2022/10/25 03:02:14;;;;;;;2.25;1.60;;;16.80;70.10;;;;;;5091264;28;20048;-71
2022/10/25 03:04:41;;;;;;;2.10;1.50;;;16.80;70.10;;;;;;5076377;28;20134;-71
2022/10/25 03:07:08;;;;;;;1.90;1.50;;;16.80;70.10;;;;;;5072344;28;20458;-72
2022/10/25 03:09:36;;;;;;;2.50;1.80;;;16.80;70.10;;;;;;5070748;28;20058;-72
2022/10/25 03:12:03;;;;;;;1.98;1.45;;;16.80;70.10;;;;;;5072018;28;20460;-72
2022/10/25 03:14:30;;;;;;;2.92;1.70;;;16.80;70.20;;;;;;5071983;28;20481;-72
2022/10/25 03:16:56;;;;;;;2.15;1.50;;;16.80;70.20;;;;;;5070738;28;20056;-72
2022/10/25 03:19:23;;;;;;;2.35;1.50;;;16.80;70.10;;;;;;5088630;28;20048;-72
2022/10/25 03:21:50;;;;;;;2.05;1.50;;;16.70;70.10;;;;;;5091997;28;20141;-72
2022/10/25 03:24:16;;;;;;;2.03;1.42;;;16.80;70.20;;;;;;5091120;28;20054;-72
2022/10/25 03:26:44;;;;;;;3.17;1.60;;;16.70;70.10;;;;;;5090782;28;20606;-72
2022/10/25 03:29:11;;;;;;;2.08;1.50;;;16.70;70.10;;;;;;5091971;28;20069;-72
2022/10/25 03:31:38;;;;;;;2.00;1.60;;;16.70;70.10;;;;;;5090768;28;20052;-72
2022/10/25 03:34:05;;;;;;;2.60;1.60;;;16.70;70.10;;;;;;5075696;28;20048;-72
2022/10/25 03:36:32;;;;;;;2.03;1.60;;;16.70;70.10;;;;;;5070877;28;20063;-72
2022/10/25 03:38:58;;;;;;;1.88;1.55;;;16.70;70.10;;;;;;5072013;28;20398;-72
2022/10/25 03:41:25;;;;;;;2.00;1.50;;;16.70;70.10;;;;;;5071230;28;20070;-72
2022/10/25 03:43:53;;;;;;;3.67;1.60;;;16.70;70.10;;;;;;5070698;28;20371;-72
2022/10/25 03:46:20;;;;;;;2.85;1.80;;;16.70;70.10;;;;;;5071878;28;20051;-72
2022/10/25 03:48:46;;;;;;;3.20;1.73;;;16.80;70.20;;;;;;5089881;28;20055;-72
2022/10/25 03:51:13;;;;;;;2.97;1.70;;;16.70;70.10;;;;;;5091479;28;20071;-72
2022/10/25 03:53:40;;;;;;;1.95;1.50;;;16.70;70.10;;;;;;5091690;28;20044;-72
2022/10/25 03:56:07;;;;;;;2.53;1.60;;;16.70;70.10;;;;;;5090523;28;20058;-72
2022/10/25 03:58:34;;;;;;;2.08;1.48;;;16.70;70.10;;;;;;5091791;28;20077;-72
2022/10/25 04:01:02;;;;;;;2.30;1.63;;;16.70;70.10;;;;;;5090200;28;20058;-72
2022/10/25 04:03:29;;;;;;;2.38;1.77;;;16.70;70.10;;;;;;5090303;28;20495;-72
2022/10/25 04:05:56;;;;;;;2.70;1.70;;;16.70;70.10;;;;;;5090206;28;20052;-72
2022/10/25 04:08:22;;;;;;;2.33;1.60;;;16.70;70.10;;;;;;5091512;28;20048;-72
2022/10/25 04:10:49;;;;;;;2.75;1.98;;;16.70;70.10;;;;;;5090315;28;20068;-72
2022/10/25 04:13:16;;;;;;;2.60;1.50;;;16.70;70.10;;;;;;5091500;28;20052;-72
2022/10/25 04:15:42;;;;;;;2.15;1.50;;;16.70;70.10;;;;;;5090219;28;20492;-72
2022/10/25 04:18:11;;;;;;;1.90;1.50;;;16.70;70.10;;;;;;5090368;28;20056;-72
2022/10/25 04:20:37;;;;;;;2.10;1.40;;;16.70;70.10;;;;;;5091191;28;20048;-72
2022/10/25 04:23:04;;;;;;;1.83;1.40;;;16.40;69.90;;;;;;5091480;28;20447;-72
2022/10/25 04:25:31;;;;;;;2.50;1.50;;;16.70;70.10;;;;;;5090537;28;20063;-72
2022/10/25 04:27:58;;;;;;;2.13;1.60;;;16.70;70.10;;;;;;5091411;28;20169;-72
2022/10/25 04:30:25;;;;;;;2.28;1.60;;;16.70;70.10;;;;;;5089831;28;20550;-72
2022/10/25 04:32:52;;;;;;;2.35;1.50;;;16.70;70.10;;;;;;5071431;28;20052;-72
2022/10/25 04:35:20;;;;;;;2.70;1.67;;;16.70;70.10;;;;;;5080662;28;20052;-72
2022/10/25 04:37:46;;;;;;;2.10;1.58;;;16.70;70.10;;;;;;5070337;28;20045;-72
2022/10/25 04:40:13;;;;;;;2.30;1.40;;;16.70;70.10;;;;;;5070895;28;20040;-71
2022/10/25 04:42:40;;;;;;;1.50;1.40;;;16.70;70.10;;;;;;5071091;28;20049;-71
2022/10/25 04:45:07;;;;;;;2.38;1.40;;;16.70;70.10;;;;;;5071436;28;20076;-71
2022/10/25 04:47:34;;;;;;;2.83;1.70;;;16.70;70.10;;;;;;5088720;28;20431;-71
2022/10/25 04:50:01;;;;;;;2.20;1.35;;;16.70;70.10;;;;;;5090120;28;20055;-71
2022/10/25 04:52:30;;;;;;;2.53;1.60;;;16.70;70.10;;;;;;5089575;28;20420;-71
2022/10/25 04:54:57;;;;;;;1.90;1.60;;;16.70;70.10;;;;;;5090309;28;20135;-71
2022/10/25 04:57:23;;;;;;;2.60;1.70;;;16.70;70.10;;;;;;5090119;28;20048;-71
2022/10/25 04:59:51;;;;;;;2.13;1.75;;;16.70;70.10;;;;;;5091327;28;20051;-71
2022/10/25 05:02:18;;;;;;;1.95;1.33;;;16.70;70.10;;;;;;5088719;28;20048;-71
2022/10/25 05:04:44;;;;;;;2.72;1.60;;;16.70;70.10;;;;;;5073536;28;20055;-71
2022/10/25 05:07:11;;;;;;;2.22;1.40;;;16.60;70.10;;;;;;5073372;28;20054;-71
2022/10/25 05:09:39;;;;;;;2.00;1.50;;;16.60;70.10;;;;;;5073003;28;20057;-71
2022/10/25 05:12:06;;;;;;;2.97;1.42;;;16.60;70.00;;;;;;5073152;28;20056;-71
2022/10/25 05:14:32;;;;;;;3.30;1.52;;;16.60;70.10;;;;;;5073459;28;20048;-71
2022/10/25 05:16:59;;;;;;;2.33;1.52;;;16.60;70.10;;;;;;5078484;28;20048;-71
2022/10/25 05:19:26;;;;;;;2.00;1.42;;;15.20;69.40;;;;;;5092676;28;20048;-71
2022/10/25 05:21:53;;;;;;;2.10;1.60;;;16.70;70.10;;;;;;5093231;28;20052;-71
2022/10/25 05:24:20;;;;;;;1.85;1.27;;;16.60;70.10;;;;;;5093230;28;20083;-71
2022/10/25 05:26:48;;;;;;;2.22;1.45;;;16.60;70.10;;;;;;5094272;28;20052;-71
2022/10/25 05:29:15;;;;;;;1.98;1.50;;;16.60;70.10;;;;;;5093042;28;20056;-71
2022/10/25 05:31:41;;;;;;;2.67;1.50;;;16.60;70.10;;;;;;5087227;28;20416;-71
2022/10/25 05:34:09;;;;;;;2.30;1.50;;;16.60;70.10;;;;;;5072963;28;20103;-71
2022/10/25 05:36:36;;;;;;;2.50;1.58;;;16.60;70.10;;;;;;5074144;28;20059;-72
2022/10/25 05:39:02;;;;;;;2.67;1.60;;;16.60;70.10;;;;;;5072823;28;20056;-72
2022/10/25 05:41:29;;;;;;;3.00;1.60;;;16.60;70.10;;;;;;5073693;28;20070;-72
2022/10/25 05:43:57;;;;;;;1.90;1.50;;;16.60;70.10;;;;;;5072676;28;20458;-72
2022/10/25 05:46:24;;;;;;;1.77;1.40;;;16.60;70.10;;;;;;5079273;28;20050;-72
2022/10/25 05:48:52;;;;;;;2.92;1.58;;;16.60;70.10;;;;;;5093508;28;20091;-72
2022/10/25 05:51:20;;;;;;;2.08;1.52;;;16.60;70.10;;;;;;5093723;28;20471;-72
2022/10/25 05:53:48;;;;;;;2.05;1.60;;;16.60;70.10;;;;;;5093557;28;20055;-71
2022/10/25 05:56:15;;;;;;;2.38;1.45;;;16.60;70.10;;;;;;5092882;28;20401;-71
2022/10/25 05:58:42;;;;;;;2.22;1.50;;;16.60;70.10;;;;;;5092342;28;20054;-72
2022/10/25 06:01:11;;;;;;;2.10;1.60;;;16.60;70.10;;;;;;5084617;28;20124;-72
2022/10/25 06:03:38;;;;;;;2.72;1.40;;;16.60;70.10;;;;;;5072410;28;20057;-72
2022/10/25 06:06:05;;;;;;;1.85;1.50;;;16.60;70.10;;;;;;5075919;28;20063;-72
2022/10/25 06:08:32;;;;;;;1.83;1.38;;;16.60;70.10;;;;;;5093701;28;20052;-72
2022/10/25 06:11:01;;;;;;;2.58;1.70;;;16.60;70.10;;;;;;5092094;28;20139;-72
2022/10/25 06:13:27;;;;;;;2.38;1.58;;;16.60;70.10;;;;;;5093271;28;20415;-72
2022/10/25 06:15:54;;;;;;;2.40;1.65;;;16.60;70.10;;;;;;5092887;28;20047;-72
2022/10/25 06:18:22;;;;;;;2.90;1.40;;;16.60;70.10;;;;;;5092319;28;20048;-72
2022/10/25 06:20:49;;;;;;;2.35;1.52;;;16.60;70.10;;;;;;5092187;28;20412;-72
2022/10/25 06:23:16;;;;;;;1.90;1.40;;;16.60;70.10;;;;;;5091944;28;20756;-72
2022/10/25 06:25:42;;;;;;;2.55;1.60;;;16.60;70.10;;;;;;5092203;28;20051;-72
2022/10/25 06:28:12;;;;;;;2.00;1.33;;;16.60;70.10;;;;;;5093006;28;20036;-73
2022/10/25 06:30:39;;;;;;;1.95;1.30;;;16.60;70.10;;;;;;5082409;28;20063;-72
2022/10/25 06:33:06;;;;;;;2.60;1.48;;;16.60;70.10;;;;;;5091885;28;20055;-73
2022/10/25 06:35:34;;;;;;;1.70;1.40;;;16.60;70.10;;;;;;5091029;28;20408;-72
2022/10/25 06:38:01;;;;;;;2.35;1.40;;;16.60;70.10;;;;;;5083513;28;20131;-73
2022/10/25 06:40:27;;;;;;;2.10;1.50;;;16.60;70.10;;;;;;5091676;28;20052;-72
2022/10/25 06:42:55;;;;;;;2.17;1.40;;;16.60;70.10;;;;;;5091716;28;20059;-72
2022/10/25 06:45:22;;;;;;;3.15;1.30;;;16.60;70.10;;;;;;5078202;28;20064;-72
2022/10/25 06:47:48;;;;;;;2.22;1.38;;;16.60;70.10;;;;;;5081507;28;20055;-72
2022/10/25 06:50:15;;;;;;;1.60;1.25;;;16.60;70.10;;;;;;5091641;28;20058;-71
2022/10/25 06:52:44;;;;;;;1.77;1.38;;;16.60;70.10;;;;;;5091424;28;20416;-71
2022/10/25 06:55:10;;;;;;;3.35;1.65;;;16.60;70.10;;;;;;5091868;28;20058;-72
2022/10/25 06:57:37;;;;;;;3.28;1.40;;;16.60;70.00;;;;;;5074943;28;20503;-71
2022/10/25 07:00:04;;;;;;;1.63;1.38;;;16.60;69.90;;;;;;5077469;28;20082;-72
2022/10/25 07:02:31;;;;;;;2.03;1.33;;;16.70;69.90;;;;;;5111961;28;20047;-72
2022/10/25 07:04:58;;;;;;;2.53;1.50;;;16.70;69.90;;;;;;5112233;28;20048;-72
2022/10/25 07:07:25;;;;;;;2.08;1.60;;;16.70;69.80;;;;;;5102360;28;20058;-72
2022/10/25 07:09:53;;;;;;;2.75;1.33;;;16.80;69.80;;;;;;5091551;28;20066;-72
2022/10/25 07:12:19;;;;;;;1.60;1.35;;;16.80;69.80;;;;;;5091474;28;20048;-72
2022/10/25 07:14:46;;;;;;;2.75;1.33;;;16.90;69.70;;;;;;5075045;28;20401;-72
2022/10/25 07:17:12;;;;;;;2.95;1.30;;;16.80;69.60;;;;;;5070997;28;20055;-71
2022/10/25 07:19:39;;;;;;;3.42;1.40;;;16.90;69.60;;;;;;5078850;28;20053;-72
2022/10/25 07:22:06;;;;;;;1.73;1.40;;;16.90;69.50;;;;;;5111416;28;20059;-72
2022/10/25 07:24:33;;;;;;;1.58;1.25;;;17.00;69.50;;;;;;5103309;28;20062;-71
2022/10/25 07:27:01;;;;;;;2.10;1.35;;;17.00;69.50;;;;;;5092384;28;20493;-72
2022/10/25 07:29:27;;;;;;;4.78;1.70;;;17.00;69.90;;;;;;5090889;28;20063;-72
2022/10/25 07:31:54;;;;;;;2.08;1.33;;;17.10;69.40;;;;;;5091019;28;20054;-72
2022/10/25 07:34:21;;;;;;;2.40;1.38;;;17.10;69.30;;;;;;5091205;28;20513;-71
2022/10/25 07:36:47;;;;;;;1.90;1.40;;;17.10;69.20;;;;;;5100191;28;20048;-72
2022/10/25 07:39:14;;;;;;;2.58;1.42;;;17.20;69.20;;;;;;5111459;28;20051;-72
2022/10/25 07:41:41;;;;;;;3.33;1.35;;;17.20;69.10;;;;;;5111119;28;20054;-72
2022/10/25 07:44:09;;;;;;;3.72;1.45;;;17.20;69.10;;;;;;5111526;28;20048;-71
2022/10/25 07:46:35;;;;;;;4.95;1.60;;;17.20;69.00;;;;;;5091875;28;20071;-71
2022/10/25 07:49:02;;;;;;;1.92;1.30;;;17.20;69.00;;;;;;5091071;28;20139;-72
2022/10/25 07:51:29;;;;;;;2.92;1.40;;;17.30;69.00;;;;;;5090056;28;20491;-72
2022/10/25 07:53:56;;;;;;;5.65;1.77;;;17.30;69.00;;;;;;5090979;28;20070;-71
2022/10/25 07:56:23;;;;;;;5.85;1.80;;;17.30;68.90;;;;;;5090728;28;20048;-72
2022/10/25 07:58:49;;;;;;;7.70;2.28;;;17.30;68.90;;;;;;5091032;28;20503;-71
2022/10/25 08:01:20;;;;;;;8.05;2.28;;;17.40;68.90;;;;;;5090416;28;20048;-71
2022/10/25 08:03:46;;;;;;;9.93;2.15;;;17.40;68.90;;;;;;5090842;28;20533;-72
2022/10/25 08:06:13;;;;;;;4.68;2.15;;;17.40;68.80;;;;;;5086984;28;20045;-72
2022/10/25 08:08:40;;;;;;;7.28;2.20;;;17.50;68.80;;;;;;5070212;28;20390;-72
2022/10/25 08:11:07;;;;;;;5.03;2.22;;;17.50;68.80;;;;;;5069978;28;20052;-72
2022/10/25 08:13:35;;;;;;;6.85;2.10;;;17.50;68.70;;;;;;5070233;28;20063;-72
2022/10/25 08:16:02;;;;;;;6.63;2.30;;;17.50;68.70;;;;;;5069886;28;20565;-70
2022/10/25 08:18:30;;;;;;;8.40;2.40;;;17.50;68.60;;;;;;5090093;28;20486;-72
2022/10/25 08:20:57;;;;;;;7.43;2.35;;;17.60;68.60;;;;;;5090188;28;20055;-72
2022/10/25 08:23:24;;;;;;;6.57;2.42;;;17.60;68.60;;;;;;5091683;28;20040;-72
2022/10/25 08:25:50;;;;;;;7.22;2.38;;;17.60;68.60;;;;;;5091566;28;20113;-72
2022/10/25 08:28:17;;;;;;;9.95;2.38;;;17.60;68.60;;;;;;5090080;28;20046;-72
2022/10/25 08:30:44;;;;;;;6.13;2.45;;;17.60;68.50;;;;;;5090174;28;20083;-72
2022/10/25 08:33:11;;;;;;;7.22;2.50;;;17.60;68.50;;;;;;5090513;28;20052;-72
2022/10/25 08:35:39;;;;;;;6.00;2.45;;;17.60;68.50;;;;;;5091645;28;20507;-71
2022/10/25 08:38:05;;;;;;;7.70;2.72;;;17.60;68.40;;;;;;5076881;28;20048;-73
2022/10/25 08:40:42;;;;;;;8.65;2.80;;;17.60;68.40;;;;;;5076964;28;20049;-72
2022/10/25 08:43:15;;;;;;;10.93;2.88;;;17.60;68.60;;;;;;5073248;28;20065;-71
2022/10/25 08:45:54;;;;;;;8.30;2.60;;;17.60;68.80;;;;;;5079381;28;20062;-71
2022/10/25 08:48:22;;;;;;;6.90;2.60;;;17.60;68.90;;;;;;5083974;28;20040;-72
2022/10/25 08:50:51;;;;;;;7.90;2.88;;;17.60;69.00;;;;;;5093160;28;20052;-71
2022/10/25 08:53:20;;;;;;;10.98;3.00;;;17.60;69.00;;;;;;5092644;28;20052;-71
2022/10/25 08:55:46;;;;;;;9.43;2.78;;;17.60;69.00;;;;;;5093578;28;20048;-72
2022/10/25 08:58:15;;;;;;;7.75;2.50;;;17.60;69.00;;;;;;5095282;28;20050;-72
2022/10/25 09:00:42;;;;;;;7.20;2.65;;;17.60;69.10;;;;;;5090497;28;20501;-72
2022/10/25 09:03:13;;;;;;;7.38;2.60;;;17.60;69.10;;;;;;5089103;28;20050;-72
2022/10/25 09:05:40;;;;;;;8.50;2.78;;;17.60;69.10;;;;;;5093906;28;20062;-71
2022/10/25 09:08:29;;;;;;;8.38;2.58;;;17.60;69.20;;;;;;5093225;28;20058;-71
2022/10/25 09:10:59;;;;;;;8.88;2.60;;;17.60;69.20;;;;;;5092778;28;20066;-72
2022/10/25 09:13:33;;;;;;;7.47;2.95;;;17.50;69.20;;;;;;5093744;28;20066;-72
2022/10/25 09:16:04;;;;;;;9.10;2.67;;;17.50;69.20;;;;;;5093567;28;20412;-72
2022/10/25 09:18:34;;;;;;;8.93;2.90;;;17.50;69.20;;;;;;5093717;28;20052;-72
2022/10/25 09:21:01;;;;;;;8.02;3.15;;;17.50;69.30;;;;;;5094554;28;20127;-72
2022/10/25 09:23:30;;;;;;;8.27;2.60;;;17.50;69.30;;;;;;5077782;28;20496;-71
2022/10/25 09:26:03;;;;;;;7.32;2.45;;;17.50;69.30;;;;;;5074378;28;20048;-71
2022/10/25 09:28:38;;;;;;;6.00;2.72;;;17.50;69.30;;;;;;5072979;28;20401;-71
2022/10/25 09:31:05;;;;;;;6.70;2.45;;;17.50;69.40;;;;;;5073062;28;20056;-71
2022/10/25 09:33:31;;;;;;;6.22;2.78;;;17.50;69.40;;;;;;5072891;28;20497;-71
2022/10/25 09:35:58;;;;;;;8.07;2.85;;;17.40;69.30;;;;;;5083397;28;20052;-72
2022/10/25 09:38:26;;;;;;;5.97;2.58;;;17.50;69.40;;;;;;5083087;28;20044;-71
2022/10/25 09:40:56;;;;;;;5.75;2.47;;;17.50;69.40;;;;;;5073961;28;20404;-71
2022/10/25 09:43:25;;;;;;;8.63;2.83;;;17.50;69.50;;;;;;5074344;28;20053;-72
2022/10/25 09:45:54;;;;;;;7.15;2.65;;;17.50;69.40;;;;;;5082924;28;20496;-72
2022/10/25 09:48:22;;;;;;;5.05;2.30;;;17.40;69.40;;;;;;5073556;28;20105;-72
2022/10/25 09:50:50;;;;;;;5.35;2.13;;;17.40;69.40;;;;;;5077348;28;20048;-73
2022/10/25 09:53:18;;;;;;;6.03;2.38;;;17.40;69.40;;;;;;5093133;28;20092;-72
2022/10/25 09:55:48;;;;;;;7.85;2.90;;;17.40;69.40;;;;;;5094233;28;20127;-72
2022/10/25 09:58:19;;;;;;;7.35;2.20;;;17.50;69.50;;;;;;5094252;28;20100;-72
2022/10/25 10:00:47;;;;;;;6.15;2.50;;;17.50;69.50;;;;;;5092614;28;20066;-72
2022/10/25 10:03:14;;;;;;;4.35;2.40;;;17.40;69.50;;;;;;5085916;28;20062;-72
2022/10/25 10:05:41;;;;;;;5.78;2.33;;;17.40;69.60;;;;;;5084521;28;20049;-71
2022/10/25 10:08:13;;;;;;;6.97;2.50;;;17.40;69.50;;;;;;5081335;28;20054;-71
2022/10/25 10:10:39;;;;;;;7.03;2.30;;;17.40;69.50;;;;;;5081102;28;20055;-72
2022/10/25 10:13:11;;;;;;;6.65;2.85;;;17.40;69.50;;;;;;5082632;28;20138;-72
2022/10/25 10:15:45;;;;;;;7.30;2.65;;;17.40;69.50;;;;;;5081242;28;20048;-72
2022/10/25 10:18:26;;;;;;;6.07;2.55;;;17.40;69.50;;;;;;5083695;28;20044;-72
2022/10/25 10:21:01;;;;;;;3.08;2.20;;;17.40;69.50;;;;;;5082545;28;20052;-71
2022/10/25 10:23:29;;;;;;;6.90;2.20;;;17.40;69.50;;;;;;5081939;28;20052;-71
2022/10/25 10:25:56;;;;;;;4.25;2.20;;;17.40;69.60;;;;;;5076306;28;20136;-71
2022/10/25 10:28:22;;;;;;;5.50;2.10;;;17.40;69.60;;;;;;5071554;28;20045;-71
2022/10/25 10:30:54;;;;;;;5.47;2.10;;;17.40;69.60;;;;;;5071597;28;20082;-73
2022/10/25 10:33:21;;;;;;;4.97;2.28;;;17.40;69.60;;;;;;5071464;28;20054;-71
2022/10/25 10:35:48;;;;;;;7.00;2.30;;;17.40;69.60;;;;;;5092398;28;20394;-71
2022/10/25 10:38:25;;;;;;;5.22;2.15;;;17.40;69.60;;;;;;5091817;28;20044;-72
2022/10/25 10:40:52;;;;;;;3.63;2.03;;;17.40;69.60;;;;;;5092034;28;20064;-72
2022/10/25 10:43:30;;;;;;;5.78;2.50;;;17.40;69.70;;;;;;5074933;28;20055;-71
2022/10/25 10:46:01;;;;;;;3.92;1.98;;;17.40;69.60;;;;;;5092023;28;20062;-71
2022/10/25 10:48:28;;;;;;;4.18;2.03;;;17.40;69.60;;;;;;5091557;28;20048;-71
2022/10/25 10:50:55;;;;;;;3.35;2.20;;;17.40;69.50;;;;;;5091374;28;20055;-71
2022/10/25 10:53:24;;;;;;;3.85;2.28;;;17.40;69.50;;;;;;5089263;28;20565;-71
2022/10/25 10:55:52;;;;;;;6.13;2.45;;;17.40;69.60;;;;;;5072496;28;20044;-71
2022/10/25 10:58:19;;;;;;;5.70;2.08;;;17.50;69.80;;;;;;5070855;28;20049;-71
2022/10/25 11:00:49;;;;;;;6.13;2.40;;;17.40;69.70;;;;;;5071830;28;20056;-71
2022/10/25 11:03:36;;;;;;;6.00;2.35;;;17.50;69.80;;;;;;5081700;28;20072;-71
2022/10/25 11:06:03;;;;;;;5.65;2.38;;;17.50;69.80;;;;;;5094612;28;20054;-71
2022/10/25 11:08:29;;;;;;;3.28;1.88;;;17.50;69.80;;;;;;5086378;28;20052;-72
2022/10/25 11:11:11;;;;;;;5.47;2.10;;;17.40;69.80;;;;;;5108504;28;20138;-71
2022/10/25 11:13:38;;;;;;;4.05;2.00;;;17.50;69.80;;;;;;5105898;28;20054;-72
2022/10/25 11:16:32;;;;;;;4.70;2.10;;;17.40;69.80;;;;;;5091304;28;20420;-72
2022/10/25 11:19:29;;;;;;;4.22;2.25;;;17.50;69.80;;;;;;5092557;28;20424;-71
2022/10/25 11:22:20;;;;;;;4.15;1.90;;;17.50;69.80;;;;;;5090784;28;20051;-71
2022/10/25 11:24:54;;;;;;;4.22;2.00;;;17.50;69.80;;;;;;5087005;28;20056;-72
2022/10/25 11:27:25;;;;;;;3.78;1.75;;;17.40;69.80;;;;;;5112229;28;20047;-72
2022/10/25 11:29:59;;;;;;;3.33;1.73;;;17.50;69.90;;;;;;5111453;28;20061;-71
2022/10/25 11:32:40;;;;;;;5.72;2.22;;;17.50;69.90;;;;;;5111166;28;20047;-72
2022/10/25 11:35:10;;;;;;;4.78;1.88;;;17.50;70.00;;;;;;5076550;28;20066;-72
2022/10/25 11:37:38;;;;;;;2.90;1.77;;;17.50;70.20;;;;;;5072243;28;20045;-72
2022/10/25 11:40:07;;;;;;;3.83;1.80;;;17.50;70.20;;;;;;5071531;28;20044;-72
2022/10/25 11:42:52;;;;;;;3.53;1.92;;;17.50;70.10;;;;;;5070749;28;20417;-72
2022/10/25 11:45:25;;;;;;;4.57;1.97;;;17.50;70.00;;;;;;5090782;28;20087;-71
2022/10/25 11:47:59;;;;;;;4.20;2.17;;;17.50;70.20;;;;;;5090331;28;20062;-72
2022/10/25 11:50:31;;;;;;;4.50;1.75;;;17.50;70.20;;;;;;5090845;28;20058;-71
2022/10/25 11:53:12;;;;;;;3.13;1.90;;;17.50;70.20;;;;;;5089974;28;20051;-72
2022/10/25 11:55:42;;;;;;;3.08;1.60;;;17.50;70.20;;;;;;5091985;28;20056;-72
2022/10/25 11:58:18;;;;;;;3.25;2.00;;;17.50;70.20;;;;;;5091927;28;20062;-72
2022/10/25 12:00:49;;;;;;;3.78;1.85;;;17.50;70.10;;;;;;5091926;28;20485;-72
2022/10/25 12:03:38;;;;;;;4.20;1.92;;;17.50;70.20;;;;;;5077208;28;20509;-71
2022/10/25 12:06:12;;;;;;;3.35;1.80;;;17.50;70.10;;;;;;5076810;28;20060;-72
2022/10/25 12:08:42;;;;;;;3.80;1.63;;;17.50;70.00;;;;;;5082059;28;20049;-72
2022/10/25 12:11:10;;;;;;;3.60;1.80;;;17.50;70.00;;;;;;5100152;28;20044;-72
2022/10/25 12:13:39;;;;;;;2.50;1.52;;;17.50;70.10;;;;;;5089546;28;20079;-72
2022/10/25 12:16:09;;;;;;;3.17;1.80;;;17.50;70.10;;;;;;5079414;28;20061;-71
2022/10/25 12:18:37;;;;;;;3.13;1.90;;;17.60;70.20;;;;;;5079497;28;20044;-72
2022/10/25 12:21:04;;;;;;;3.28;1.90;;;17.60;70.20;;;;;;5083017;28;20561;-72
2022/10/25 12:23:42;;;;;;;3.22;2.00;;;17.60;70.20;;;;;;5076934;28;20049;-72
2022/10/25 12:26:11;;;;;;;3.03;1.55;;;17.60;70.00;;;;;;5075096;28;20500;-72
2022/10/25 12:28:42;;;;;;;3.63;1.98;;;17.60;70.10;;;;;;5110046;28;20048;-72
2022/10/25 12:31:14;;;;;;;3.65;2.00;;;17.60;70.10;;;;;;5079522;28;20055;-72
2022/10/25 12:33:41;;;;;;;3.17;1.70;;;17.60;70.00;;;;;;5087240;28;20074;-72
2022/10/25 12:36:11;;;;;;;2.97;1.58;;;17.60;70.00;;;;;;5079777;28;20409;-72
2022/10/25 12:38:40;;;;;;;4.60;1.80;;;17.60;70.00;;;;;;5108646;28;20044;-73
2022/10/25 12:41:08;;;;;;;2.60;1.75;;;17.60;69.90;;;;;;5106644;28;20076;-71
2022/10/25 12:43:37;;;;;;;2.90;1.67;;;17.60;69.90;;;;;;5092851;28;20549;-71
2022/10/25 12:46:11;;;;;;;2.80;1.80;;;17.60;70.00;;;;;;5093693;28;20054;-72
2022/10/25 12:48:59;;;;;;;6.85;1.70;;;17.60;69.90;;;;;;5095350;28;20054;-71
2022/10/25 12:51:34;;;;;;;2.67;1.60;;;17.60;69.80;;;;;;5093909;28;20060;-71
2022/10/25 12:54:29;;;;;;;2.75;1.77;;;17.60;69.80;;;;;;5093826;28;20056;-71
2022/10/25 12:57:00;;;;;;;2.22;1.63;;;17.60;69.80;;;;;;5077165;28;20059;-71
2022/10/25 12:59:37;;;;;;;3.05;1.40;;;17.60;69.80;;;;;;5090504;28;20659;-71